Time;durP1;ratioP1;P1;durP2;ratioP2;P2;SDS_P1;SDS_P2;PMS_P1;PMS_P2;Temp;Humidity;BMP_temperature;BMP_pressure;BME280_temperature;BME280_humidity;BME280_pressure;Samples;Min_cycle;Max_cycle;Signal;HPM_P1;HPM_P2
2023/08/10 00:01:05;;;;;;;16.88;13.40;;;15.80;99.90;;;;;;5062891;28;20213;-68
2023/08/10 00:03:57;;;;;;;13.73;12.32;;;15.80;99.90;;;;;;5056680;28;20224;-68
2023/08/10 00:06:47;;;;;;;16.33;12.73;;;15.70;99.90;;;;;;5055400;28;20221;-67
2023/08/10 00:09:36;;;;;;;16.60;11.88;;;15.80;99.90;;;;;;5042744;28;20231;-68
2023/08/10 00:12:25;;;;;;;16.35;11.65;;;15.70;99.90;;;;;;5035962;28;20224;-67
2023/08/10 00:15:13;;;;;;;16.05;11.73;;;15.70;99.90;;;;;;5030205;28;20419;-68
2023/08/10 00:18:02;;;;;;;12.07;10.88;;;15.70;99.90;;;;;;5039757;28;20311;-68
2023/08/10 00:20:51;;;;;;;11.68;10.48;;;15.60;99.90;;;;;;5030589;28;20225;-68
2023/08/10 00:23:42;;;;;;;10.93;9.82;;;15.60;99.90;;;;;;5043188;28;20224;-67
2023/08/10 00:26:32;;;;;;;11.00;9.82;;;15.60;99.90;;;;;;5047730;28;20220;-66
2023/08/10 00:29:21;;;;;;;12.30;9.90;;;15.50;99.90;;;;;;5045973;28;20232;-67
2023/08/10 00:32:10;;;;;;;11.80;9.80;;;15.60;99.90;;;;;;5043923;28;20237;-67
2023/08/10 00:34:58;;;;;;;13.10;10.18;;;15.50;99.90;;;;;;5055783;28;20806;-68
2023/08/10 00:37:49;;;;;;;10.85;9.38;;;15.50;99.90;;;;;;5048528;28;20568;-68
2023/08/10 00:40:41;;;;;;;11.80;9.05;;;15.50;99.90;;;;;;5060562;28;20295;-67
2023/08/10 00:43:30;;;;;;;9.73;8.73;;;15.40;99.90;;;;;;5070790;28;20223;-67
2023/08/10 00:46:19;;;;;;;11.20;9.15;;;15.40;99.90;;;;;;5045385;28;20805;-68
2023/08/10 00:49:08;;;;;;;12.15;9.70;;;15.40;99.90;;;;;;5052642;28;20233;-69
2023/08/10 00:51:57;;;;;;;10.27;9.07;;;15.40;99.90;;;;;;5030217;28;20221;-68
2023/08/10 00:54:47;;;;;;;11.20;9.20;;;15.40;99.90;;;;;;5042900;28;20255;-68
2023/08/10 00:57:38;;;;;;;13.25;9.20;;;15.30;99.90;;;;;;5047342;28;20216;-69
2023/08/10 01:00:27;;;;;;;14.27;9.88;;;15.40;99.90;;;;;;5061698;28;20696;-68
2023/08/10 01:03:17;;;;;;;10.95;9.93;;;15.30;99.90;;;;;;5060603;28;20235;-68
2023/08/10 01:06:13;;;;;;;14.95;10.30;;;15.30;99.90;;;;;;5063599;28;20235;-69
2023/08/10 01:09:12;;;;;;;16.63;11.20;;;15.30;99.90;;;;;;5056462;28;20227;-68
2023/08/10 01:12:12;;;;;;;15.32;11.60;;;15.30;99.90;;;;;;5068738;28;20648;-68
2023/08/10 01:15:07;;;;;;;14.20;11.15;;;15.40;99.90;;;;;;5057229;28;20220;-69
2023/08/10 01:17:58;;;;;;;13.75;11.18;;;15.30;99.90;;;;;;5060058;28;20222;-69
2023/08/10 01:20:49;;;;;;;11.90;10.63;;;15.30;99.90;;;;;;5041977;28;20232;-68
2023/08/10 01:23:42;;;;;;;14.77;11.07;;;15.30;99.90;;;;;;5060895;28;20228;-67
2023/08/10 01:26:32;;;;;;;15.70;10.20;;;15.20;99.90;;;;;;5060331;28;20219;-67
2023/08/10 01:29:23;;;;;;;13.70;10.95;;;15.30;99.90;;;;;;5055825;28;20315;-67
2023/08/10 01:32:15;;;;;;;14.75;10.80;;;15.30;99.90;;;;;;5068020;28;20248;-67
2023/08/10 01:35:06;;;;;;;11.73;10.52;;;15.10;99.90;;;;;;5046231;28;20232;-68
2023/08/10 01:37:55;;;;;;;14.13;11.23;;;15.20;99.90;;;;;;5044255;28;20228;-67
2023/08/10 01:40:44;;;;;;;12.75;11.32;;;15.10;99.90;;;;;;5037787;28;20229;-67
2023/08/10 01:43:39;;;;;;;12.55;11.27;;;15.10;99.90;;;;;;5046116;28;20237;-67
2023/08/10 01:46:30;;;;;;;14.35;11.07;;;15.10;99.90;;;;;;5066701;28;20314;-70
2023/08/10 01:49:22;;;;;;;17.50;11.45;;;15.20;99.90;;;;;;5045877;28;20228;-69
2023/08/10 01:52:13;;;;;;;12.88;11.18;;;15.00;99.90;;;;;;5067755;28;20219;-71
2023/08/10 01:55:03;;;;;;;13.57;11.30;;;15.00;99.90;;;;;;5065182;28;20581;-71
2023/08/10 01:57:53;;;;;;;13.45;10.32;;;15.10;99.90;;;;;;5060448;28;20227;-71
2023/08/10 02:00:44;;;;;;;13.25;11.05;;;15.00;99.90;;;;;;5042633;28;20309;-70
2023/08/10 02:03:33;;;;;;;12.20;10.85;;;14.90;99.90;;;;;;5065153;28;20212;-70
2023/08/10 02:06:22;;;;;;;15.30;10.77;;;14.90;99.90;;;;;;5036793;28;20229;-70
2023/08/10 02:09:13;;;;;;;11.73;10.43;;;14.90;99.90;;;;;;5040503;28;20220;-71
2023/08/10 02:12:02;;;;;;;12.00;10.35;;;15.00;99.90;;;;;;5015761;28;20236;-71
2023/08/10 02:14:52;;;;;;;12.13;10.50;;;14.90;99.90;;;;;;5012858;28;20245;-68
2023/08/10 02:17:43;;;;;;;11.32;10.23;;;15.00;99.90;;;;;;5019573;28;20249;-68
2023/08/10 02:20:32;;;;;;;12.65;9.77;;;14.90;99.90;;;;;;5020434;28;20225;-68
2023/08/10 02:23:21;;;;;;;14.85;10.57;;;14.80;99.90;;;;;;5019940;28;20667;-68
2023/08/10 02:26:10;;;;;;;15.20;10.77;;;14.90;99.90;;;;;;5016332;28;20366;-70
2023/08/10 02:28:59;;;;;;;11.60;9.93;;;14.90;99.90;;;;;;5024188;28;20676;-69
2023/08/10 02:31:48;;;;;;;14.73;10.13;;;14.90;99.90;;;;;;5021454;28;20232;-69
2023/08/10 02:34:41;;;;;;;13.32;9.93;;;14.80;99.90;;;;;;5009962;28;20242;-68
2023/08/10 02:37:30;;;;;;;13.13;10.23;;;14.70;99.90;;;;;;5014851;28;20248;-69
2023/08/10 02:40:19;;;;;;;14.38;10.48;;;14.80;99.90;;;;;;5010827;28;20391;-69
2023/08/10 02:43:08;;;;;;;12.02;9.57;;;14.70;99.90;;;;;;5015785;28;20235;-69
2023/08/10 02:45:57;;;;;;;14.55;10.52;;;14.70;99.90;;;;;;5036442;28;20217;-69
2023/08/10 02:48:46;;;;;;;14.15;10.65;;;14.70;99.90;;;;;;5015490;28;20222;-68
2023/08/10 02:51:36;;;;;;;14.77;10.23;;;14.70;99.90;;;;;;5011046;28;20272;-69
2023/08/10 02:54:25;;;;;;;14.93;10.95;;;14.70;99.90;;;;;;5011543;28;20214;-69
2023/08/10 02:57:14;;;;;;;15.00;10.55;;;14.70;99.90;;;;;;5016924;28;20229;-69
2023/08/10 03:00:06;;;;;;;14.02;10.73;;;14.70;99.90;;;;;;5044345;28;20952;-69
2023/08/10 03:02:55;;;;;;;12.50;10.77;;;14.80;99.90;;;;;;5017691;28;21025;-70
2023/08/10 03:05:45;;;;;;;11.73;10.52;;;14.70;99.90;;;;;;5015053;28;20241;-69
2023/08/10 03:08:35;;;;;;;14.07;10.68;;;14.70;99.90;;;;;;5020186;28;20230;-69
2023/08/10 03:11:24;;;;;;;13.20;10.68;;;14.70;99.90;;;;;;5041606;28;20220;-69
2023/08/10 03:14:12;;;;;;;12.10;10.85;;;14.70;99.90;;;;;;5034923;28;20276;-68
2023/08/10 03:17:01;;;;;;;16.80;11.02;;;14.70;99.90;;;;;;5036439;28;20232;-69
2023/08/10 03:19:52;;;;;;;12.23;10.52;;;14.70;99.90;;;;;;5036644;28;20236;-69
2023/08/10 03:22:42;;;;;;;13.90;10.82;;;14.60;99.90;;;;;;5033505;28;20222;-69
2023/08/10 03:25:33;;;;;;;14.25;10.70;;;14.70;99.90;;;;;;5039652;28;20707;-69
2023/08/10 03:28:22;;;;;;;11.77;10.57;;;14.60;99.90;;;;;;5046614;28;20615;-69
2023/08/10 03:31:13;;;;;;;13.02;11.35;;;14.50;99.90;;;;;;5039965;28;21032;-68
2023/08/10 03:34:04;;;;;;;15.07;11.23;;;14.60;99.90;;;;;;5041212;28;20253;-69
2023/08/10 03:36:55;;;;;;;15.38;12.07;;;14.70;99.90;;;;;;5047121;28;20233;-69
2023/08/10 03:39:45;;;;;;;13.95;11.82;;;14.70;99.90;;;;;;5028895;28;20249;-69
2023/08/10 03:42:35;;;;;;;13.48;12.10;;;14.70;99.90;;;;;;5030388;28;20232;-70
2023/08/10 03:45:26;;;;;;;15.02;12.38;;;14.70;99.90;;;;;;5052694;28;20315;-71
2023/08/10 03:48:15;;;;;;;13.45;11.30;;;14.70;99.90;;;;;;5032793;28;20221;-71
2023/08/10 03:51:04;;;;;;;13.88;12.13;;;14.60;99.90;;;;;;5037291;28;20765;-70
2023/08/10 03:53:53;;;;;;;13.90;11.32;;;14.70;99.90;;;;;;5040272;28;20298;-70
2023/08/10 03:56:43;;;;;;;13.93;12.45;;;14.70;99.90;;;;;;5035731;28;20266;-71
2023/08/10 03:59:33;;;;;;;13.35;11.95;;;14.80;99.90;;;;;;5034998;28;20216;-70
2023/08/10 04:02:22;;;;;;;16.77;12.38;;;14.80;99.90;;;;;;5029303;28;20397;-70
2023/08/10 04:05:11;;;;;;;13.10;11.63;;;14.80;99.90;;;;;;5063700;28;20219;-70
2023/08/10 04:08:00;;;;;;;14.32;11.93;;;14.80;99.90;;;;;;5074036;28;20587;-70
2023/08/10 04:10:49;;;;;;;12.35;11.00;;;14.80;99.90;;;;;;5067535;28;20353;-69
2023/08/10 04:13:38;;;;;;;13.15;11.75;;;14.70;99.90;;;;;;5081697;28;20211;-69
2023/08/10 04:16:29;;;;;;;14.38;12.27;;;14.70;99.90;;;;;;5075934;28;20215;-69
2023/08/10 04:19:18;;;;;;;15.45;12.13;;;14.70;99.90;;;;;;5064072;28;20300;-69
2023/08/10 04:22:07;;;;;;;13.40;12.00;;;14.80;99.90;;;;;;5086450;28;20227;-69
2023/08/10 04:24:56;;;;;;;14.77;12.88;;;14.80;99.90;;;;;;5077687;28;20272;-69
2023/08/10 04:27:45;;;;;;;15.15;12.63;;;14.90;99.90;;;;;;5074820;28;20607;-68
2023/08/10 04:30:34;;;;;;;13.52;12.15;;;14.90;99.90;;;;;;5081126;28;20222;-69
2023/08/10 04:33:24;;;;;;;15.02;12.68;;;14.90;99.90;;;;;;5077510;28;20226;-70
2023/08/10 04:36:13;;;;;;;14.00;12.32;;;14.90;99.90;;;;;;5067857;28;20591;-68
2023/08/10 04:39:02;;;;;;;15.93;12.77;;;15.00;99.90;;;;;;5060482;28;20220;-69
2023/08/10 04:41:51;;;;;;;16.10;13.50;;;15.20;99.90;;;;;;5077456;28;20290;-69
2023/08/10 04:44:40;;;;;;;16.98;13.30;;;15.30;99.90;;;;;;5074661;28;20223;-70
2023/08/10 04:47:29;;;;;;;17.10;12.88;;;15.30;99.90;;;;;;5076084;28;20362;-69
2023/08/10 04:50:19;;;;;;;17.35;12.90;;;15.30;99.90;;;;;;5073958;28;20220;-69
2023/08/10 04:53:08;;;;;;;14.88;12.45;;;15.40;99.90;;;;;;5083627;28;20280;-69
2023/08/10 04:55:57;;;;;;;14.55;13.02;;;15.50;99.90;;;;;;5077800;28;20790;-67
2023/08/10 04:58:46;;;;;;;14.40;12.90;;;15.50;99.90;;;;;;5084120;28;20226;-68
2023/08/10 05:01:34;;;;;;;14.80;13.27;;;15.50;99.90;;;;;;5080421;28;20243;-68
2023/08/10 05:04:23;;;;;;;15.85;13.48;;;15.50;99.90;;;;;;5065102;28;20284;-67
2023/08/10 05:07:14;;;;;;;14.88;13.38;;;15.40;99.90;;;;;;5078050;28;20841;-68
2023/08/10 05:10:05;;;;;;;14.25;12.75;;;15.40;99.90;;;;;;5068274;28;20238;-69
2023/08/10 05:12:56;;;;;;;14.80;12.75;;;15.40;99.90;;;;;;5081836;28;20251;-69
2023/08/10 05:15:44;;;;;;;14.90;13.30;;;15.40;99.90;;;;;;5071349;28;20227;-69
2023/08/10 05:18:34;;;;;;;16.80;13.30;;;15.50;99.90;;;;;;5063772;28;20501;-71
2023/08/10 05:21:25;;;;;;;16.58;13.40;;;15.50;99.90;;;;;;5068418;28;20296;-71
2023/08/10 05:24:15;;;;;;;16.17;13.48;;;15.50;99.90;;;;;;5071059;28;20300;-72
2023/08/10 05:27:07;;;;;;;16.08;13.73;;;15.70;99.90;;;;;;5070207;28;20444;-73
2023/08/10 05:29:55;;;;;;;15.32;13.68;;;15.60;99.90;;;;;;5083183;28;20220;-71
2023/08/10 05:32:44;;;;;;;15.63;13.65;;;15.70;99.90;;;;;;5069242;28;20231;-70
2023/08/10 05:35:34;;;;;;;18.08;14.07;;;15.90;99.90;;;;;;5077665;28;20257;-70
2023/08/10 05:38:24;;;;;;;17.10;13.10;;;16.20;99.90;;;;;;5076243;28;20231;-70
2023/08/10 05:41:14;;;;;;;15.88;13.10;;;16.30;99.90;;;;;;5074079;28;20251;-70
2023/08/10 05:44:04;;;;;;;13.93;12.63;;;16.60;99.90;;;;;;5078223;28;20207;-69
2023/08/10 05:46:52;;;;;;;14.57;13.02;;;16.70;99.90;;;;;;5079609;28;20219;-70
2023/08/10 05:49:42;;;;;;;13.60;12.15;;;16.90;99.90;;;;;;5074151;28;20311;-68
2023/08/10 05:52:31;;;;;;;15.63;12.77;;;17.10;99.90;;;;;;5069970;28;20888;-74
2023/08/10 05:55:20;;;;;;;15.98;12.35;;;17.20;99.90;;;;;;5073909;28;20216;-68
2023/08/10 05:58:10;;;;;;;15.57;12.55;;;17.30;99.90;;;;;;5062900;28;20908;-67
2023/08/10 06:01:17;;;;;;;15.82;12.82;;;17.20;99.90;;;;;;5059701;28;20220;-67
2023/08/10 06:04:07;;;;;;;15.55;13.02;;;17.20;99.90;;;;;;5072997;28;20219;-70
2023/08/10 06:06:55;;;;;;;15.15;13.32;;;17.40;99.90;;;;;;5088664;27;20350;-67
2023/08/10 06:09:44;;;;;;;18.92;12.90;;;17.40;99.90;;;;;;5073498;28;20599;-70
2023/08/10 06:12:34;;;;;;;16.40;12.60;;;17.40;99.90;;;;;;5076601;28;20312;-69
2023/08/10 06:15:28;;;;;;;15.75;12.52;;;17.40;99.90;;;;;;5073874;28;20219;-69
2023/08/10 06:18:17;;;;;;;15.73;11.68;;;17.50;99.90;;;;;;5077671;28;20282;-70
2023/08/10 06:21:06;;;;;;;16.98;13.10;;;17.50;99.90;;;;;;5061132;28;20223;-70
2023/08/10 06:23:56;;;;;;;14.70;12.80;;;17.40;99.90;;;;;;5065082;28;20597;-70
2023/08/10 06:26:45;;;;;;;16.50;12.40;;;17.40;99.90;;;;;;5064370;28;20220;-72
2023/08/10 06:29:35;;;;;;;14.55;11.55;;;17.50;99.90;;;;;;5080965;28;20223;-70
2023/08/10 06:32:25;;;;;;;18.05;12.60;;;17.40;99.90;;;;;;5065378;28;20923;-70
2023/08/10 06:35:14;;;;;;;16.05;12.68;;;17.60;99.90;;;;;;5074436;28;20227;-70
2023/08/10 06:38:05;;;;;;;14.60;11.13;;;18.10;99.90;;;;;;5077717;28;20306;-69
2023/08/10 06:40:55;;;;;;;17.83;13.85;;;18.10;99.90;;;;;;5081312;28;20537;-67
2023/08/10 06:43:44;;;;;;;14.70;11.85;;;18.00;99.90;;;;;;5078879;28;20274;-70
2023/08/10 06:46:33;;;;;;;15.55;11.73;;;18.00;99.90;;;;;;5070056;28;20679;-68
2023/08/10 06:49:24;;;;;;;15.75;11.20;;;18.10;99.90;;;;;;5075808;28;20360;-69
2023/08/10 06:52:12;;;;;;;13.98;10.75;;;18.00;99.90;;;;;;5072409;28;20226;-69
2023/08/10 06:55:02;;;;;;;15.48;10.65;;;18.00;99.90;;;;;;5078529;28;20540;-69
2023/08/10 06:57:51;;;;;;;18.35;11.38;;;18.00;99.90;;;;;;5080088;28;20227;-69
2023/08/10 07:00:40;;;;;;;16.58;10.70;;;18.10;99.90;;;;;;5077286;28;20292;-69
2023/08/10 07:03:40;;;;;;;14.35;9.77;;;18.30;99.90;;;;;;5096071;27;20580;-69
2023/08/10 07:06:31;;;;;;;11.13;9.35;;;18.40;99.90;;;;;;5064686;28;20234;-69
2023/08/10 07:09:22;;;;;;;17.67;10.27;;;18.50;99.90;;;;;;5060792;28;20667;-68
2023/08/10 07:12:11;;;;;;;11.55;8.90;;;18.70;99.90;;;;;;5064668;28;20250;-68
2023/08/10 07:15:01;;;;;;;14.18;10.23;;;18.90;99.90;;;;;;5074996;28;20230;-68
2023/08/10 07:17:50;;;;;;;11.10;6.55;;;19.20;99.90;;;;;;5064773;28;20251;-69
2023/08/10 07:20:40;;;;;;;11.25;7.40;;;19.30;99.90;;;;;;5077657;28;20219;-69
2023/08/10 07:23:30;;;;;;;13.52;8.10;;;19.40;99.90;;;;;;5073778;28;20225;-69
2023/08/10 07:26:19;;;;;;;13.32;9.45;;;19.40;99.90;;;;;;5074019;28;20223;-69
2023/08/10 07:29:09;;;;;;;13.15;10.02;;;19.60;99.90;;;;;;5079287;28;20708;-70
2023/08/10 07:32:00;;;;;;;12.35;8.70;;;19.80;99.90;;;;;;5073626;28;20376;-69
2023/08/10 07:34:49;;;;;;;12.93;8.25;;;19.80;99.90;;;;;;5079561;28;20313;-69
2023/08/10 07:37:40;;;;;;;10.88;7.55;;;19.70;99.90;;;;;;5076670;28;20223;-69
2023/08/10 07:40:31;;;;;;;11.80;8.38;;;20.00;99.90;;;;;;5067267;28;20242;-70
2023/08/10 07:43:20;;;;;;;10.55;7.93;;;20.20;99.90;;;;;;5063591;28;20227;-68
2023/08/10 07:46:10;;;;;;;14.15;7.68;;;20.30;99.90;;;;;;5064088;28;20216;-68
2023/08/10 07:48:59;;;;;;;9.63;7.50;;;20.50;99.90;;;;;;5073144;28;20303;-69
2023/08/10 07:51:48;;;;;;;9.55;6.57;;;20.60;99.90;;;;;;5082469;28;20231;-69
2023/08/10 07:54:37;;;;;;;11.13;6.10;;;20.70;99.90;;;;;;5072465;28;20299;-69
2023/08/10 07:57:27;;;;;;;11.35;6.03;;;20.90;99.90;;;;;;5058515;28;20224;-68
2023/08/10 08:00:17;;;;;;;8.68;5.43;;;21.10;99.90;;;;;;5054699;28;20226;-69
2023/08/10 08:03:08;;;;;;;8.32;5.28;;;21.40;99.90;;;;;;5071776;28;20220;-69
2023/08/10 08:05:57;;;;;;;6.90;4.68;;;21.80;99.90;;;;;;5056958;28;20334;-69
2023/08/10 08:08:46;;;;;;;6.10;4.85;;;21.80;99.90;;;;;;5076583;28;21133;-70
2023/08/10 08:11:35;;;;;;;8.25;5.03;;;22.00;99.90;;;;;;5054113;28;20247;-69
2023/08/10 08:14:26;;;;;;;8.57;5.13;;;22.30;99.90;;;;;;5040545;28;20752;-70
2023/08/10 08:17:14;;;;;;;11.20;4.80;;;22.60;99.90;;;;;;5041268;28;20229;-69
2023/08/10 08:20:04;;;;;;;6.65;4.70;;;23.10;99.90;;;;;;5070327;28;20267;-69
2023/08/10 08:22:53;;;;;;;5.90;4.35;;;23.40;99.90;;;;;;5045392;28;20228;-70
2023/08/10 08:25:42;;;;;;;6.07;3.83;;;23.60;99.90;;;;;;5058764;28;20220;-70
2023/08/10 08:28:31;;;;;;;10.50;4.57;;;24.00;99.90;;;;;;5059868;28;20302;-69
2023/08/10 08:31:21;;;;;;;6.63;3.67;;;24.20;99.90;;;;;;5053847;28;20895;-69
2023/08/10 08:34:11;;;;;;;3.83;2.47;;;24.20;99.90;;;;;;5040090;28;20432;-68
2023/08/10 08:37:00;;;;;;;8.15;3.85;;;24.70;99.90;;;;;;5056197;28;20244;-69
2023/08/10 08:39:48;;;;;;;8.98;3.72;;;24.60;99.90;;;;;;5062202;28;20247;-70
2023/08/10 08:42:39;;;;;;;8.32;3.50;;;24.80;99.90;;;;;;5028842;28;20228;-68
2023/08/10 08:45:28;;;;;;;11.93;3.80;;;25.30;99.90;;;;;;5054831;28;20224;-69
2023/08/10 08:48:18;;;;;;;6.65;2.95;;;25.60;99.90;;;;;;5054398;28;20232;-69
2023/08/10 08:51:07;;;;;;;11.02;2.50;;;25.80;99.90;;;;;;5054770;28;20583;-69
2023/08/10 08:53:57;;;;;;;5.63;2.88;;;24.80;99.90;;;;;;5058742;28;20353;-69
2023/08/10 08:56:46;;;;;;;7.15;2.60;;;25.10;99.90;;;;;;5039439;28;20220;-69
2023/08/10 08:59:35;;;;;;;7.03;2.85;;;25.50;99.90;;;;;;5063123;28;20225;-69
2023/08/10 09:02:24;;;;;;;3.03;2.08;;;26.40;99.90;;;;;;5057428;28;20314;-70
2023/08/10 09:05:15;;;;;;;7.65;2.30;;;26.40;99.90;;;;;;5058241;28;20233;-69
2023/08/10 09:08:04;;;;;;;9.50;2.50;;;26.10;99.90;;;;;;5052349;28;20602;-70
2023/08/10 09:10:54;;;;;;;4.18;2.35;;;25.00;99.90;;;;;;5052135;28;20688;-69
2023/08/10 09:13:42;;;;;;;4.43;1.98;;;25.50;99.90;;;;;;5080153;28;20298;-70
2023/08/10 09:16:34;;;;;;;4.97;2.10;;;26.20;99.90;;;;;;5067505;28;20232;-70
2023/08/10 09:19:23;;;;;;;5.70;2.08;;;26.70;98.80;;;;;;5072495;28;20781;-70
2023/08/10 09:22:28;;;;;;;6.18;2.33;;;27.70;99.90;;;;;;5075491;28;20293;-69
2023/08/10 09:25:17;;;;;;;6.32;2.50;;;27.70;95.90;;;;;;5092358;27;20231;-69
2023/08/10 09:28:10;;;;;;;5.47;2.30;;;28.10;96.50;;;;;;5076201;28;20323;-69
2023/08/10 09:30:59;;;;;;;4.45;2.75;;;28.40;94.90;;;;;;5077570;28;20228;-69
2023/08/10 09:33:54;;;;;;;3.15;2.15;;;29.30;97.10;;;;;;5064300;28;20306;-70
2023/08/10 09:36:54;;;;;;;4.97;2.65;;;29.00;93.00;;;;;;5079825;28;20234;-70
2023/08/10 09:39:44;;;;;;;7.57;2.83;;;28.00;93.40;;;;;;5063316;28;20227;-71
2023/08/10 09:42:34;;;;;;;6.85;2.30;;;27.10;94.60;;;;;;5082342;28;20239;-69
2023/08/10 09:45:23;;;;;;;4.43;2.45;;;25.70;96.00;;;;;;5068749;28;20278;-69
2023/08/10 09:48:12;;;;;;;5.72;2.10;;;25.30;96.60;;;;;;5062896;28;20217;-68
2023/08/10 09:51:03;;;;;;;5.40;2.13;;;25.30;97.30;;;;;;5069986;28;20218;-69
2023/08/10 09:53:54;;;;;;;4.45;1.90;;;24.60;97.80;;;;;;5088051;28;20220;-69
2023/08/10 09:56:44;;;;;;;5.95;1.98;;;24.20;99.90;;;;;;5082265;28;20257;-69
2023/08/10 09:59:34;;;;;;;5.38;2.13;;;23.60;99.90;;;;;;5074068;28;20227;-69
2023/08/10 10:02:24;;;;;;;2.28;1.55;;;25.60;99.90;;;;;;5060328;28;20971;-69
2023/08/10 10:05:13;;;;;;;3.92;2.00;;;28.90;97.60;;;;;;5059596;28;20819;-68
2023/08/10 10:08:19;;;;;;;4.97;2.05;;;29.00;96.20;;;;;;5063005;28;20216;-68
2023/08/10 10:11:13;;;;;;;3.35;1.90;;;31.00;86.70;;;;;;5071311;28;20283;-68
2023/08/10 10:14:05;;;;;;;7.63;2.22;;;28.80;91.60;;;;;;5077728;27;20211;-68
2023/08/10 10:16:58;;;;;;;3.15;1.80;;;26.90;95.10;;;;;;5077227;28;20234;-68
2023/08/10 10:19:49;;;;;;;5.13;2.10;;;30.10;94.50;;;;;;5088444;27;20257;-68
2023/08/10 10:22:39;;;;;;;3.13;2.25;;;31.50;91.10;;;;;;5069445;28;20709;-69
2023/08/10 10:25:28;;;;;;;6.03;2.15;;;33.20;86.30;;;;;;5080538;28;20215;-67
2023/08/10 10:28:17;;;;;;;3.90;1.90;;;34.60;75.60;;;;;;5076562;28;20746;-68
2023/08/10 10:31:12;;;;;;;7.53;2.30;;;31.50;83.20;;;;;;5077763;28;20223;-68
2023/08/10 10:34:04;;;;;;;5.63;2.10;;;29.00;83.60;;;;;;5077340;28;20254;-68
2023/08/10 10:37:07;;;;;;;5.25;2.13;;;29.00;83.90;;;;;;5084810;28;20781;-66
2023/08/10 10:40:15;;;;;;;3.55;1.70;;;32.20;85.60;;;;;;5075520;28;20226;-68
2023/08/10 10:43:11;;;;;;;3.75;1.85;;;32.90;72.40;;;;;;5075069;28;20220;-69
2023/08/10 10:45:59;;;;;;;4.70;2.00;;;31.10;78.70;;;;;;5077118;28;20431;-68
2023/08/10 10:48:51;;;;;;;5.13;1.85;;;34.60;72.30;;;;;;5093792;27;20231;-70
2023/08/10 10:51:53;;;;;;;3.38;1.92;;;34.70;68.50;;;;;;5060791;28;20234;-70
2023/08/10 10:54:42;;;;;;;3.05;2.00;;;35.90;64.50;;;;;;5086918;28;20223;-69
2023/08/10 10:57:34;;;;;;;3.00;2.15;;;36.30;64.40;;;;;;5076637;28;20218;-69
2023/08/10 11:00:24;;;;;;;3.40;2.08;;;37.40;57.30;;;;;;5069827;28;20237;-68
2023/08/10 11:03:14;;;;;;;4.13;2.00;;;36.80;58.00;;;;;;5058394;28;20227;-69
2023/08/10 11:06:06;;;;;;;3.90;2.58;;;38.40;57.60;;;;;;5072755;28;20260;-69
2023/08/10 11:08:55;;;;;;;5.72;2.83;;;39.30;55.70;;;;;;5074613;28;20586;-70
2023/08/10 11:11:49;;;;;;;5.47;2.03;;;40.20;54.90;;;;;;5071951;28;20808;-68
2023/08/10 11:14:41;;;;;;;5.72;3.53;;;40.70;56.60;;;;;;5074584;28;20222;-69
2023/08/10 11:17:30;;;;;;;3.67;1.80;;;41.40;54.20;;;;;;5065379;28;20222;-69
2023/08/10 11:20:42;;;;;;;4.25;2.30;;;41.60;52.90;;;;;;5072430;28;20251;-70
2023/08/10 11:23:32;;;;;;;3.53;2.08;;;41.40;48.60;;;;;;5076759;28;20225;-70
2023/08/10 11:26:21;;;;;;;2.00;1.35;;;42.20;51.30;;;;;;5064317;28;20753;-70
2023/08/10 11:29:11;;;;;;;4.00;2.05;;;43.00;49.40;;;;;;5065188;28;20223;-69
2023/08/10 11:32:00;;;;;;;2.72;1.88;;;43.00;45.30;;;;;;5062236;28;20622;-69
2023/08/10 11:34:53;;;;;;;3.13;2.00;;;43.10;46.60;;;;;;5077961;28;20223;-70
2023/08/10 11:37:42;;;;;;;5.35;1.92;;;43.40;45.60;;;;;;5089564;27;20311;-69
2023/08/10 11:40:32;;;;;;;3.38;1.90;;;43.90;43.20;;;;;;5056360;28;20222;-68
2023/08/10 11:43:22;;;;;;;3.40;1.65;;;43.90;43.50;;;;;;5075698;28;20238;-68
2023/08/10 11:46:11;;;;;;;5.78;2.20;;;44.30;43.40;;;;;;5075944;28;20222;-69
2023/08/10 11:49:00;;;;;;;3.85;1.98;;;45.70;43.40;;;;;;5057596;28;20215;-68
2023/08/10 11:51:49;;;;;;;6.28;1.70;;;45.50;43.10;;;;;;5083718;28;20215;-68
2023/08/10 11:54:39;;;;;;;6.10;2.10;;;45.20;43.20;;;;;;5060508;28;20246;-70
2023/08/10 11:57:37;;;;;;;3.22;1.70;;;46.90;41.70;;;;;;5081029;28;20334;-69
2023/08/10 12:00:30;;;;;;;4.35;1.98;;;46.80;38.20;;;;;;5091438;27;20249;-69
2023/08/10 12:03:24;;;;;;;7.47;2.25;;;47.00;39.20;;;;;;5075660;28;20223;-68
2023/08/10 12:06:22;;;;;;;3.50;1.85;;;47.70;38.50;;;;;;5073628;28;20226;-69
2023/08/10 12:09:11;;;;;;;3.55;2.08;;;48.00;38.80;;;;;;5080815;28;20215;-70
2023/08/10 12:12:02;;;;;;;3.22;1.83;;;47.30;37.80;;;;;;5073148;28;20337;-72
2023/08/10 12:14:54;;;;;;;5.55;2.03;;;47.50;38.00;;;;;;5080555;28;20648;-73
2023/08/10 12:17:43;;;;;;;4.82;2.50;;;46.80;36.40;;;;;;5079484;28;20222;-72
2023/08/10 12:20:33;;;;;;;5.85;2.90;;;46.20;35.80;;;;;;5071234;28;20229;-71
2023/08/10 12:23:22;;;;;;;4.10;1.90;;;47.10;39.60;;;;;;5080402;28;20222;-72
2023/08/10 12:26:11;;;;;;;3.40;2.00;;;48.50;37.10;;;;;;5061441;28;20237;-71
2023/08/10 12:29:01;;;;;;;3.92;2.55;;;49.40;38.20;;;;;;5080812;28;20792;-71
2023/08/10 12:31:52;;;;;;;4.25;1.70;;;46.40;37.00;;;;;;5066029;28;20302;-71
2023/08/10 12:34:41;;;;;;;4.10;1.67;;;39.40;39.20;;;;;;5069955;28;20219;-76
2023/08/10 12:37:30;;;;;;;5.53;2.03;;;35.70;44.60;;;;;;5098873;27;20222;-75
2023/08/10 12:40:20;;;;;;;4.07;1.90;;;33.30;45.80;;;;;;5069948;28;20226;-75
2023/08/10 12:43:09;;;;;;;4.35;1.65;;;32.30;49.20;;;;;;5069675;28;20227;-77
2023/08/10 12:45:58;;;;;;;5.20;1.88;;;31.00;51.00;;;;;;5096504;27;20771;-75
2023/08/10 12:48:48;;;;;;;5.15;2.15;;;30.00;52.20;;;;;;5085164;28;20689;-75
2023/08/10 12:51:38;;;;;;;6.68;2.60;;;29.00;51.90;;;;;;5086372;28;20233;-75
2023/08/10 12:54:27;;;;;;;4.97;1.92;;;28.40;57.30;;;;;;5082604;28;20662;-74
2023/08/10 12:57:16;;;;;;;3.00;1.88;;;28.20;55.80;;;;;;5085656;28;20312;-75
2023/08/10 13:00:09;;;;;;;3.45;1.73;;;27.80;54.70;;;;;;5084290;28;20218;-76
2023/08/10 13:02:58;;;;;;;6.70;3.42;;;27.40;55.10;;;;;;5082264;28;20233;-73
2023/08/10 13:05:49;;;;;;;4.85;2.13;;;27.20;62.80;;;;;;5082355;28;20227;-76
2023/08/10 13:08:38;;;;;;;4.80;2.10;;;27.00;59.60;;;;;;5084520;28;20370;-72
2023/08/10 13:11:27;;;;;;;3.50;2.40;;;26.80;61.60;;;;;;5086337;28;20924;-74
2023/08/10 13:14:16;;;;;;;4.32;2.42;;;26.60;61.50;;;;;;5069359;28;20703;-74
2023/08/10 13:17:06;;;;;;;7.22;4.38;;;26.60;61.50;;;;;;5077080;28;20241;-74
2023/08/10 13:19:58;;;;;;;4.03;2.10;;;26.70;62.60;;;;;;5085437;28;20313;-76
2023/08/10 13:22:49;;;;;;;4.28;1.90;;;26.60;61.90;;;;;;5079441;28;20349;-76
2023/08/10 13:25:39;;;;;;;2.67;1.60;;;26.50;66.70;;;;;;5063318;28;20239;-76
2023/08/10 13:28:28;;;;;;;4.15;1.73;;;26.10;60.40;;;;;;5067954;28;20512;-75
2023/08/10 13:31:17;;;;;;;3.10;1.60;;;25.70;61.80;;;;;;5067101;28;20226;-75
2023/08/10 13:34:08;;;;;;;6.82;2.08;;;25.70;62.20;;;;;;5076643;28;20800;-75
2023/08/10 13:36:57;;;;;;;4.85;1.80;;;25.60;64.50;;;;;;5084196;28;20298;-76
2023/08/10 13:39:47;;;;;;;2.95;1.80;;;25.50;64.40;;;;;;5084460;28;20258;-76
2023/08/10 13:42:36;;;;;;;5.38;1.73;;;25.50;62.80;;;;;;5089685;28;20220;-75
2023/08/10 13:45:25;;;;;;;5.25;2.28;;;25.50;63.20;;;;;;5071259;28;20234;-74
2023/08/10 13:48:14;;;;;;;5.05;2.00;;;25.40;64.30;;;;;;5080742;28;20277;-73
2023/08/10 13:51:03;;;;;;;3.97;1.90;;;25.30;62.30;;;;;;5062215;28;20223;-73
2023/08/10 13:53:52;;;;;;;3.70;2.03;;;25.40;62.60;;;;;;5077116;28;20312;-73
2023/08/10 13:57:00;;;;;;;4.10;1.73;;;25.20;62.00;;;;;;5066713;28;20276;-74
2023/08/10 13:59:49;;;;;;;5.10;2.20;;;25.40;64.30;;;;;;5079480;28;20653;-75
2023/08/10 14:02:38;;;;;;;4.03;1.83;;;25.20;64.10;;;;;;5078272;28;20241;-73
2023/08/10 14:05:28;;;;;;;8.40;2.05;;;25.20;65.60;;;;;;5074478;28;20227;-74
2023/08/10 14:08:22;;;;;;;3.50;1.60;;;25.30;62.80;;;;;;5079975;28;20266;-69
2023/08/10 14:11:11;;;;;;;2.80;1.65;;;25.30;60.30;;;;;;5079140;28;20253;-70
2023/08/10 14:14:02;;;;;;;4.63;1.73;;;25.20;60.60;;;;;;5079110;28;20663;-68
2023/08/10 14:16:51;;;;;;;2.47;1.63;;;25.10;61.30;;;;;;5066504;28;20639;-71
2023/08/10 14:19:40;;;;;;;4.28;1.73;;;25.00;70.20;;;;;;5068800;28;20211;-72
2023/08/10 14:22:29;;;;;;;5.75;2.00;;;24.90;64.60;;;;;;5074382;28;20220;-73
2023/08/10 14:25:18;;;;;;;8.73;1.80;;;25.00;65.40;;;;;;5075651;28;20231;-72
2023/08/10 14:28:07;;;;;;;4.15;1.65;;;25.00;59.40;;;;;;5079137;28;20226;-72
2023/08/10 14:30:57;;;;;;;8.70;2.20;;;25.00;58.60;;;;;;5061364;28;20226;-72
2023/08/10 14:33:46;;;;;;;7.22;1.83;;;24.90;61.30;;;;;;5066444;28;20303;-71
2023/08/10 14:36:35;;;;;;;16.02;3.35;;;24.90;60.10;;;;;;5074396;28;20580;-71